sensor_id;sensor_type;location;lat;lon;timestamp;temperature;humidity
54006;DHT22;39919;38.160;-122.260;2023-04-24T00:01:14;23.60;59.20
54006;DHT22;39919;38.160;-122.260;2023-04-24T00:03:45;23.50;57.30
54006;DHT22;39919;38.160;-122.260;2023-04-24T00:06:15;23.40;56.00
54006;DHT22;39919;38.160;-122.260;2023-04-24T00:08:45;23.40;56.20
54006;DHT22;39919;38.160;-122.260;2023-04-24T00:11:14;23.30;56.20
54006;DHT22;39919;38.160;-122.260;2023-04-24T00:13:43;23.30;56.10
54006;DHT22;39919;38.160;-122.260;2023-04-24T00:16:16;23.20;55.60
54006;DHT22;39919;38.160;-122.260;2023-04-24T00:18:46;23.20;56.30
54006;DHT22;39919;38.160;-122.260;2023-04-24T00:21:24;23.10;56.20
54006;DHT22;39919;38.160;-122.260;2023-04-24T00:23:54;23.00;56.20
54006;DHT22;39919;38.160;-122.260;2023-04-24T00:26:23;22.90;57.00
54006;DHT22;39919;38.160;-122.260;2023-04-24T00:28:52;22.80;57.20
54006;DHT22;39919;38.160;-122.260;2023-04-24T00:31:21;22.70;57.50
54006;DHT22;39919;38.160;-122.260;2023-04-24T00:33:52;22.60;56.70
54006;DHT22;39919;38.160;-122.260;2023-04-24T00:36:22;22.50;56.50
54006;DHT22;39919;38.160;-122.260;2023-04-24T00:38:54;22.50;56.70
54006;DHT22;39919;38.160;-122.260;2023-04-24T00:41:25;22.40;56.80
54006;DHT22;39919;38.160;-122.260;2023-04-24T00:43:54;22.30;57.30
54006;DHT22;39919;38.160;-122.260;2023-04-24T00:46:23;22.30;57.30
54006;DHT22;39919;38.160;-122.260;2023-04-24T00:48:55;22.20;57.40
54006;DHT22;39919;38.160;-122.260;2023-04-24T00:51:25;22.10;57.80
54006;DHT22;39919;38.160;-122.260;2023-04-24T00:53:54;22.10;58.10
54006;DHT22;39919;38.160;-122.260;2023-04-24T00:56:23;21.90;57.70
54006;DHT22;39919;38.160;-122.260;2023-04-24T00:58:53;21.80;57.70
54006;DHT22;39919;38.160;-122.260;2023-04-24T01:01:22;21.70;58.50
54006;DHT22;39919;38.160;-122.260;2023-04-24T01:03:54;21.60;58.30
54006;DHT22;39919;38.160;-122.260;2023-04-24T01:06:24;21.60;59.00
54006;DHT22;39919;38.160;-122.260;2023-04-24T01:08:56;21.50;59.10
54006;DHT22;39919;38.160;-122.260;2023-04-24T01:11:26;21.40;59.60
54006;DHT22;39919;38.160;-122.260;2023-04-24T01:13:55;21.30;60.70
54006;DHT22;39919;38.160;-122.260;2023-04-24T01:16:25;21.20;60.80
54006;DHT22;39919;38.160;-122.260;2023-04-24T01:18:56;21.20;60.40
54006;DHT22;39919;38.160;-122.260;2023-04-24T01:21:27;21.00;62.40
54006;DHT22;39919;38.160;-122.260;2023-04-24T01:24:00;20.90;62.50
54006;DHT22;39919;38.160;-122.260;2023-04-24T01:26:29;20.80;62.00
54006;DHT22;39919;38.160;-122.260;2023-04-24T01:28:58;20.70;62.20
54006;DHT22;39919;38.160;-122.260;2023-04-24T01:31:29;20.60;62.70
54006;DHT22;39919;38.160;-122.260;2023-04-24T01:34:02;20.50;63.10
54006;DHT22;39919;38.160;-122.260;2023-04-24T01:36:33;20.40;63.20
54006;DHT22;39919;38.160;-122.260;2023-04-24T01:39:08;20.30;63.10
54006;DHT22;39919;38.160;-122.260;2023-04-24T01:41:37;20.20;63.40
54006;DHT22;39919;38.160;-122.260;2023-04-24T01:44:06;20.20;63.70
54006;DHT22;39919;38.160;-122.260;2023-04-24T01:46:36;20.00;63.80
54006;DHT22;39919;38.160;-122.260;2023-04-24T01:49:06;20.00;64.00
54006;DHT22;39919;38.160;-122.260;2023-04-24T01:51:36;19.90;64.00
54006;DHT22;39919;38.160;-122.260;2023-04-24T01:54:07;19.80;64.10
54006;DHT22;39919;38.160;-122.260;2023-04-24T01:56:37;19.80;64.00
54006;DHT22;39919;38.160;-122.260;2023-04-24T01:59:10;19.70;64.30
54006;DHT22;39919;38.160;-122.260;2023-04-24T02:01:39;19.70;64.90
54006;DHT22;39919;38.160;-122.260;2023-04-24T02:04:10;19.60;65.30
54006;DHT22;39919;38.160;-122.260;2023-04-24T02:06:40;19.50;65.50
54006;DHT22;39919;38.160;-122.260;2023-04-24T02:09:11;19.40;65.30
54006;DHT22;39919;38.160;-122.260;2023-04-24T02:11:40;19.30;65.80
54006;DHT22;39919;38.160;-122.260;2023-04-24T02:14:10;19.20;66.20
54006;DHT22;39919;38.160;-122.260;2023-04-24T02:16:39;19.10;66.60
54006;DHT22;39919;38.160;-122.260;2023-04-24T02:21:37;18.90;66.60
54006;DHT22;39919;38.160;-122.260;2023-04-24T02:24:06;18.90;67.40
54006;DHT22;39919;38.160;-122.260;2023-04-24T02:26:38;18.80;67.40
54006;DHT22;39919;38.160;-122.260;2023-04-24T02:29:07;18.70;67.20
54006;DHT22;39919;38.160;-122.260;2023-04-24T02:31:36;18.70;67.10
54006;DHT22;39919;38.160;-122.260;2023-04-24T02:34:05;18.60;67.40
54006;DHT22;39919;38.160;-122.260;2023-04-24T02:36:35;18.50;67.80
54006;DHT22;39919;38.160;-122.260;2023-04-24T02:39:04;18.40;67.90
54006;DHT22;39919;38.160;-122.260;2023-04-24T02:41:33;18.30;68.20
54006;DHT22;39919;38.160;-122.260;2023-04-24T02:44:04;18.10;70.20
54006;DHT22;39919;38.160;-122.260;2023-04-24T02:46:33;18.30;86.50
54006;DHT22;39919;38.160;-122.260;2023-04-24T02:49:03;18.20;87.70
54006;DHT22;39919;38.160;-122.260;2023-04-24T02:51:32;18.00;67.90
54006;DHT22;39919;38.160;-122.260;2023-04-24T02:54:01;17.90;67.80
54006;DHT22;39919;38.160;-122.260;2023-04-24T02:56:31;17.90;68.00
54006;DHT22;39919;38.160;-122.260;2023-04-24T02:59:01;17.80;68.30
54006;DHT22;39919;38.160;-122.260;2023-04-24T03:01:32;17.70;68.50
54006;DHT22;39919;38.160;-122.260;2023-04-24T03:04:02;17.70;68.60
54006;DHT22;39919;38.160;-122.260;2023-04-24T03:06:32;17.60;68.90
54006;DHT22;39919;38.160;-122.260;2023-04-24T03:09:02;17.50;69.30
54006;DHT22;39919;38.160;-122.260;2023-04-24T03:11:32;17.40;69.40
54006;DHT22;39919;38.160;-122.260;2023-04-24T03:14:03;17.40;69.90
54006;DHT22;39919;38.160;-122.260;2023-04-24T03:16:34;17.30;70.00
54006;DHT22;39919;38.160;-122.260;2023-04-24T03:19:04;17.30;70.20
54006;DHT22;39919;38.160;-122.260;2023-04-24T03:21:33;17.20;70.30
54006;DHT22;39919;38.160;-122.260;2023-04-24T03:24:07;17.10;70.00
54006;DHT22;39919;38.160;-122.260;2023-04-24T03:26:39;17.10;70.00
54006;DHT22;39919;38.160;-122.260;2023-04-24T03:29:08;17.00;70.50
54006;DHT22;39919;38.160;-122.260;2023-04-24T03:31:39;16.90;70.80
54006;DHT22;39919;38.160;-122.260;2023-04-24T03:34:08;16.80;70.90
54006;DHT22;39919;38.160;-122.260;2023-04-24T03:36:38;16.80;71.10
54006;DHT22;39919;38.160;-122.260;2023-04-24T03:39:07;16.70;71.50
54006;DHT22;39919;38.160;-122.260;2023-04-24T03:41:39;16.70;71.40
54006;DHT22;39919;38.160;-122.260;2023-04-24T03:44:08;16.60;71.20
54006;DHT22;39919;38.160;-122.260;2023-04-24T03:46:39;16.60;71.50
54006;DHT22;39919;38.160;-122.260;2023-04-24T03:49:08;16.50;71.80
54006;DHT22;39919;38.160;-122.260;2023-04-24T03:51:38;16.50;72.10
54006;DHT22;39919;38.160;-122.260;2023-04-24T03:54:07;16.40;72.50
54006;DHT22;39919;38.160;-122.260;2023-04-24T03:56:40;16.40;72.50
54006;DHT22;39919;38.160;-122.260;2023-04-24T03:59:09;16.30;72.30
54006;DHT22;39919;38.160;-122.260;2023-04-24T04:01:41;16.30;72.60
54006;DHT22;39919;38.160;-122.260;2023-04-24T04:04:12;16.30;73.10
54006;DHT22;39919;38.160;-122.260;2023-04-24T04:06:41;16.30;73.40
54006;DHT22;39919;38.160;-122.260;2023-04-24T04:09:11;16.20;73.30
54006;DHT22;39919;38.160;-122.260;2023-04-24T04:11:41;16.10;73.50
54006;DHT22;39919;38.160;-122.260;2023-04-24T04:14:10;16.10;73.60
54006;DHT22;39919;38.160;-122.260;2023-04-24T04:16:41;16.10;73.80
54006;DHT22;39919;38.160;-122.260;2023-04-24T04:19:10;16.00;73.90
54006;DHT22;39919;38.160;-122.260;2023-04-24T04:21:39;16.00;73.60
54006;DHT22;39919;38.160;-122.260;2023-04-24T04:24:09;15.90;73.60
54006;DHT22;39919;38.160;-122.260;2023-04-24T04:26:38;15.90;74.20
54006;DHT22;39919;38.160;-122.260;2023-04-24T04:29:08;15.90;74.30
54006;DHT22;39919;38.160;-122.260;2023-04-24T04:31:37;15.80;74.50
54006;DHT22;39919;38.160;-122.260;2023-04-24T04:34:08;15.80;74.80
54006;DHT22;39919;38.160;-122.260;2023-04-24T04:36:38;15.80;74.70
54006;DHT22;39919;38.160;-122.260;2023-04-24T04:39:11;15.70;74.70
54006;DHT22;39919;38.160;-122.260;2023-04-24T04:41:41;15.70;74.50
54006;DHT22;39919;38.160;-122.260;2023-04-24T04:44:11;15.60;74.80
54006;DHT22;39919;38.160;-122.260;2023-04-24T04:46:41;15.60;74.80
54006;DHT22;39919;38.160;-122.260;2023-04-24T04:49:12;15.60;74.60
54006;DHT22;39919;38.160;-122.260;2023-04-24T04:51:43;15.50;74.30
54006;DHT22;39919;38.160;-122.260;2023-04-24T04:54:12;15.50;74.40
54006;DHT22;39919;38.160;-122.260;2023-04-24T04:56:41;15.50;74.50
54006;DHT22;39919;38.160;-122.260;2023-04-24T04:59:11;15.50;74.40
54006;DHT22;39919;38.160;-122.260;2023-04-24T05:01:40;15.40;74.40
54006;DHT22;39919;38.160;-122.260;2023-04-24T05:04:11;15.40;74.40
54006;DHT22;39919;38.160;-122.260;2023-04-24T05:06:40;15.30;74.50
54006;DHT22;39919;38.160;-122.260;2023-04-24T05:09:09;15.30;74.80
54006;DHT22;39919;38.160;-122.260;2023-04-24T05:11:44;15.30;75.40
54006;DHT22;39919;38.160;-122.260;2023-04-24T05:14:13;15.20;75.50
54006;DHT22;39919;38.160;-122.260;2023-04-24T05:16:44;15.20;75.90
54006;DHT22;39919;38.160;-122.260;2023-04-24T05:19:15;15.20;75.70
54006;DHT22;39919;38.160;-122.260;2023-04-24T05:21:44;15.10;75.50
54006;DHT22;39919;38.160;-122.260;2023-04-24T05:24:14;15.10;75.70
54006;DHT22;39919;38.160;-122.260;2023-04-24T05:26:43;15.10;76.10
54006;DHT22;39919;38.160;-122.260;2023-04-24T05:29:12;15.00;76.30
54006;DHT22;39919;38.160;-122.260;2023-04-24T05:31:42;15.00;76.80
54006;DHT22;39919;38.160;-122.260;2023-04-24T05:34:11;15.00;77.70
54006;DHT22;39919;38.160;-122.260;2023-04-24T05:36:45;15.00;76.90
54006;DHT22;39919;38.160;-122.260;2023-04-24T05:39:27;15.00;77.10
54006;DHT22;39919;38.160;-122.260;2023-04-24T05:41:57;14.90;77.20
54006;DHT22;39919;38.160;-122.260;2023-04-24T05:44:28;14.90;77.10
54006;DHT22;39919;38.160;-122.260;2023-04-24T05:46:57;14.90;77.20
54006;DHT22;39919;38.160;-122.260;2023-04-24T05:49:27;14.90;77.20
54006;DHT22;39919;38.160;-122.260;2023-04-24T05:51:58;14.80;76.80
54006;DHT22;39919;38.160;-122.260;2023-04-24T05:54:28;14.80;76.80
54006;DHT22;39919;38.160;-122.260;2023-04-24T05:56:57;14.80;77.00
54006;DHT22;39919;38.160;-122.260;2023-04-24T05:59:26;14.80;77.20
54006;DHT22;39919;38.160;-122.260;2023-04-24T06:01:55;14.80;77.50
54006;DHT22;39919;38.160;-122.260;2023-04-24T06:04:25;14.80;77.50
54006;DHT22;39919;38.160;-122.260;2023-04-24T06:06:54;14.80;77.50
54006;DHT22;39919;38.160;-122.260;2023-04-24T06:09:28;14.80;77.50
54006;DHT22;39919;38.160;-122.260;2023-04-24T06:11:57;14.80;77.50
54006;DHT22;39919;38.160;-122.260;2023-04-24T06:14:27;14.80;77.40
54006;DHT22;39919;38.160;-122.260;2023-04-24T06:16:56;14.70;77.30
54006;DHT22;39919;38.160;-122.260;2023-04-24T06:19:25;14.70;77.30
54006;DHT22;39919;38.160;-122.260;2023-04-24T06:21:54;14.70;77.40
54006;DHT22;39919;38.160;-122.260;2023-04-24T06:24:27;14.70;77.60
54006;DHT22;39919;38.160;-122.260;2023-04-24T06:26:57;14.70;77.60
54006;DHT22;39919;38.160;-122.260;2023-04-24T06:29:28;14.70;77.80
54006;DHT22;39919;38.160;-122.260;2023-04-24T06:31:57;14.70;77.50
54006;DHT22;39919;38.160;-122.260;2023-04-24T06:34:26;14.60;77.20
54006;DHT22;39919;38.160;-122.260;2023-04-24T06:36:57;14.60;77.40
54006;DHT22;39919;38.160;-122.260;2023-04-24T06:39:28;14.60;77.20
54006;DHT22;39919;38.160;-122.260;2023-04-24T06:41:58;14.50;77.00
54006;DHT22;39919;38.160;-122.260;2023-04-24T06:44:27;14.50;77.00
54006;DHT22;39919;38.160;-122.260;2023-04-24T06:46:56;14.50;76.90
54006;DHT22;39919;38.160;-122.260;2023-04-24T06:49:26;14.50;76.80
54006;DHT22;39919;38.160;-122.260;2023-04-24T06:51:55;14.40;77.30
54006;DHT22;39919;38.160;-122.260;2023-04-24T06:54:29;14.40;77.80
54006;DHT22;39919;38.160;-122.260;2023-04-24T06:56:58;14.30;78.00
54006;DHT22;39919;38.160;-122.260;2023-04-24T06:59:28;14.30;78.00
54006;DHT22;39919;38.160;-122.260;2023-04-24T07:01:57;14.30;77.80
54006;DHT22;39919;38.160;-122.260;2023-04-24T07:04:26;14.30;85.90
54006;DHT22;39919;38.160;-122.260;2023-04-24T07:06:56;14.30;90.30
54006;DHT22;39919;38.160;-122.260;2023-04-24T07:09:27;14.50;85.10
54006;DHT22;39919;38.160;-122.260;2023-04-24T07:11:57;14.20;78.20
54006;DHT22;39919;38.160;-122.260;2023-04-24T07:14:26;14.20;78.40
54006;DHT22;39919;38.160;-122.260;2023-04-24T07:16:55;14.20;79.30
54006;DHT22;39919;38.160;-122.260;2023-04-24T07:19:25;14.20;78.50
54006;DHT22;39919;38.160;-122.260;2023-04-24T07:21:54;14.10;78.10
54006;DHT22;39919;38.160;-122.260;2023-04-24T07:24:25;14.10;78.00
54006;DHT22;39919;38.160;-122.260;2023-04-24T07:26:56;14.10;77.70
54006;DHT22;39919;38.160;-122.260;2023-04-24T07:29:25;14.10;83.50
54006;DHT22;39919;38.160;-122.260;2023-04-24T07:31:54;14.00;77.20
54006;DHT22;39919;38.160;-122.260;2023-04-24T07:34:23;14.00;77.30
54006;DHT22;39919;38.160;-122.260;2023-04-24T07:36:53;14.00;77.30
54006;DHT22;39919;38.160;-122.260;2023-04-24T07:39:22;14.00;77.40
54006;DHT22;39919;38.160;-122.260;2023-04-24T07:41:54;14.00;77.50
54006;DHT22;39919;38.160;-122.260;2023-04-24T07:44:24;13.90;77.40
54006;DHT22;39919;38.160;-122.260;2023-04-24T07:46:53;13.90;84.30
54006;DHT22;39919;38.160;-122.260;2023-04-24T07:54:20;13.90;75.60
54006;DHT22;39919;38.160;-122.260;2023-04-24T07:56:50;13.80;76.10
54006;DHT22;39919;38.160;-122.260;2023-04-24T07:59:21;13.80;75.90
54006;DHT22;39919;38.160;-122.260;2023-04-24T08:01:50;13.70;75.90
54006;DHT22;39919;38.160;-122.260;2023-04-24T08:04:19;13.70;75.90
54006;DHT22;39919;38.160;-122.260;2023-04-24T08:06:49;13.70;75.70
54006;DHT22;39919;38.160;-122.260;2023-04-24T08:09:18;13.60;75.90
54006;DHT22;39919;38.160;-122.260;2023-04-24T08:11:47;13.60;76.20
54006;DHT22;39919;38.160;-122.260;2023-04-24T08:14:17;13.50;76.20
54006;DHT22;39919;38.160;-122.260;2023-04-24T08:16:55;13.50;76.60
54006;DHT22;39919;38.160;-122.260;2023-04-24T08:19:26;13.50;77.30
54006;DHT22;39919;38.160;-122.260;2023-04-24T08:21:55;13.40;77.00
54006;DHT22;39919;38.160;-122.260;2023-04-24T08:24:24;13.40;76.70
54006;DHT22;39919;38.160;-122.260;2023-04-24T08:26:53;13.40;76.20
54006;DHT22;39919;38.160;-122.260;2023-04-24T08:29:24;13.40;75.50
54006;DHT22;39919;38.160;-122.260;2023-04-24T08:31:56;13.30;74.90
54006;DHT22;39919;38.160;-122.260;2023-04-24T08:34:25;13.30;74.70
54006;DHT22;39919;38.160;-122.260;2023-04-24T08:36:54;13.30;74.60
54006;DHT22;39919;38.160;-122.260;2023-04-24T08:39:23;13.20;74.60
54006;DHT22;39919;38.160;-122.260;2023-04-24T08:41:53;13.20;74.60
54006;DHT22;39919;38.160;-122.260;2023-04-24T08:44:23;13.10;74.70
54006;DHT22;39919;38.160;-122.260;2023-04-24T08:46:55;13.10;74.80
54006;DHT22;39919;38.160;-122.260;2023-04-24T08:49:25;13.10;75.10
54006;DHT22;39919;38.160;-122.260;2023-04-24T08:51:54;13.00;75.30
54006;DHT22;39919;38.160;-122.260;2023-04-24T08:54:24;13.00;75.50
54006;DHT22;39919;38.160;-122.260;2023-04-24T08:56:55;13.00;75.60
54006;DHT22;39919;38.160;-122.260;2023-04-24T08:59:28;12.90;75.80
54006;DHT22;39919;38.160;-122.260;2023-04-24T09:02:00;12.90;76.20
54006;DHT22;39919;38.160;-122.260;2023-04-24T09:04:33;12.90;76.40
54006;DHT22;39919;38.160;-122.260;2023-04-24T09:07:04;12.80;76.20
54006;DHT22;39919;38.160;-122.260;2023-04-24T09:09:35;12.80;76.60
54006;DHT22;39919;38.160;-122.260;2023-04-24T09:12:05;12.80;76.40
54006;DHT22;39919;38.160;-122.260;2023-04-24T09:14:36;12.80;76.40
54006;DHT22;39919;38.160;-122.260;2023-04-24T09:17:11;12.70;76.30
54006;DHT22;39919;38.160;-122.260;2023-04-24T09:19:41;12.70;76.10
54006;DHT22;39919;38.160;-122.260;2023-04-24T09:22:10;12.70;76.40
54006;DHT22;39919;38.160;-122.260;2023-04-24T09:24:39;12.70;76.70
54006;DHT22;39919;38.160;-122.260;2023-04-24T09:27:11;12.60;76.90
54006;DHT22;39919;38.160;-122.260;2023-04-24T09:29:54;12.60;77.70
54006;DHT22;39919;38.160;-122.260;2023-04-24T09:32:25;12.60;77.80
54006;DHT22;39919;38.160;-122.260;2023-04-24T09:35:10;12.60;77.80
54006;DHT22;39919;38.160;-122.260;2023-04-24T09:37:41;12.60;77.10
54006;DHT22;39919;38.160;-122.260;2023-04-24T09:40:12;12.60;76.90
54006;DHT22;39919;38.160;-122.260;2023-04-24T09:42:44;12.60;76.80
54006;DHT22;39919;38.160;-122.260;2023-04-24T09:45:17;12.50;76.80
54006;DHT22;39919;38.160;-122.260;2023-04-24T09:47:52;12.50;76.80
54006;DHT22;39919;38.160;-122.260;2023-04-24T09:50:22;12.50;76.90
54006;DHT22;39919;38.160;-122.260;2023-04-24T09:52:57;12.50;77.10
54006;DHT22;39919;38.160;-122.260;2023-04-24T09:55:28;12.40;77.00
54006;DHT22;39919;38.160;-122.260;2023-04-24T09:57:58;12.40;76.60
54006;DHT22;39919;38.160;-122.260;2023-04-24T10:00:36;12.40;76.30
54006;DHT22;39919;38.160;-122.260;2023-04-24T10:03:07;12.40;76.00
54006;DHT22;39919;38.160;-122.260;2023-04-24T10:05:37;12.40;75.60
54006;DHT22;39919;38.160;-122.260;2023-04-24T10:08:09;12.30;75.40
54006;DHT22;39919;38.160;-122.260;2023-04-24T10:10:41;12.30;75.20
54006;DHT22;39919;38.160;-122.260;2023-04-24T10:13:12;12.30;74.80
54006;DHT22;39919;38.160;-122.260;2023-04-24T10:15:42;12.30;74.60
54006;DHT22;39919;38.160;-122.260;2023-04-24T10:18:13;12.20;74.70
54006;DHT22;39919;38.160;-122.260;2023-04-24T10:20:44;12.20;74.60
54006;DHT22;39919;38.160;-122.260;2023-04-24T10:23:13;12.10;74.80
54006;DHT22;39919;38.160;-122.260;2023-04-24T10:28:13;12.10;74.10
54006;DHT22;39919;38.160;-122.260;2023-04-24T10:30:43;12.10;74.60
54006;DHT22;39919;38.160;-122.260;2023-04-24T10:33:14;12.00;74.70
54006;DHT22;39919;38.160;-122.260;2023-04-24T10:35:47;11.90;75.00
54006;DHT22;39919;38.160;-122.260;2023-04-24T10:38:21;11.90;75.10
54006;DHT22;39919;38.160;-122.260;2023-04-24T10:40:58;11.90;74.80
54006;DHT22;39919;38.160;-122.260;2023-04-24T10:43:35;11.90;74.60
54006;DHT22;39919;38.160;-122.260;2023-04-24T10:46:05;11.80;74.40
54006;DHT22;39919;38.160;-122.260;2023-04-24T10:48:42;11.80;74.40
54006;DHT22;39919;38.160;-122.260;2023-04-24T10:51:13;11.70;74.40
54006;DHT22;39919;38.160;-122.260;2023-04-24T10:53:42;11.70;74.40
54006;DHT22;39919;38.160;-122.260;2023-04-24T10:56:11;11.70;74.50
54006;DHT22;39919;38.160;-122.260;2023-04-24T10:58:42;11.60;74.40
54006;DHT22;39919;38.160;-122.260;2023-04-24T11:01:24;11.60;74.20
54006;DHT22;39919;38.160;-122.260;2023-04-24T11:03:57;11.50;74.10
54006;DHT22;39919;38.160;-122.260;2023-04-24T11:06:30;11.50;74.80
54006;DHT22;39919;38.160;-122.260;2023-04-24T11:09:03;11.50;75.20
54006;DHT22;39919;38.160;-122.260;2023-04-24T11:11:35;11.50;75.30
54006;DHT22;39919;38.160;-122.260;2023-04-24T11:14:09;11.40;75.60
54006;DHT22;39919;38.160;-122.260;2023-04-24T11:16:47;11.40;75.70
54006;DHT22;39919;38.160;-122.260;2023-04-24T11:19:24;11.40;75.60
54006;DHT22;39919;38.160;-122.260;2023-04-24T11:21:59;11.40;75.80
54006;DHT22;39919;38.160;-122.260;2023-04-24T11:24:31;11.40;75.80
54006;DHT22;39919;38.160;-122.260;2023-04-24T11:27:13;11.30;75.60
54006;DHT22;39919;38.160;-122.260;2023-04-24T11:29:45;11.30;75.50
54006;DHT22;39919;38.160;-122.260;2023-04-24T11:32:16;11.20;75.60
54006;DHT22;39919;38.160;-122.260;2023-04-24T11:34:49;11.20;75.60
54006;DHT22;39919;38.160;-122.260;2023-04-24T11:37:19;11.20;75.70
54006;DHT22;39919;38.160;-122.260;2023-04-24T11:39:51;11.20;75.70
54006;DHT22;39919;38.160;-122.260;2023-04-24T11:42:22;11.10;75.80
54006;DHT22;39919;38.160;-122.260;2023-04-24T11:44:53;11.10;76.00
54006;DHT22;39919;38.160;-122.260;2023-04-24T11:47:29;11.00;76.00
54006;DHT22;39919;38.160;-122.260;2023-04-24T11:50:02;11.00;76.30
54006;DHT22;39919;38.160;-122.260;2023-04-24T11:52:33;11.00;76.50
54006;DHT22;39919;38.160;-122.260;2023-04-24T11:55:07;11.00;77.20
54006;DHT22;39919;38.160;-122.260;2023-04-24T11:57:37;11.00;77.40
54006;DHT22;39919;38.160;-122.260;2023-04-24T12:00:16;10.90;77.30
54006;DHT22;39919;38.160;-122.260;2023-04-24T12:02:52;10.90;77.60
54006;DHT22;39919;38.160;-122.260;2023-04-24T12:05:35;10.90;78.40
54006;DHT22;39919;38.160;-122.260;2023-04-24T12:08:05;10.90;79.30
54006;DHT22;39919;38.160;-122.260;2023-04-24T12:10:34;10.80;79.30
54006;DHT22;39919;38.160;-122.260;2023-04-24T12:13:03;10.80;79.30
54006;DHT22;39919;38.160;-122.260;2023-04-24T12:15:33;10.80;79.40
54006;DHT22;39919;38.160;-122.260;2023-04-24T12:18:03;10.80;79.50
54006;DHT22;39919;38.160;-122.260;2023-04-24T12:26:16;10.80;80.10
54006;DHT22;39919;38.160;-122.260;2023-04-24T12:28:49;10.80;80.40
54006;DHT22;39919;38.160;-122.260;2023-04-24T12:31:18;10.80;80.20
54006;DHT22;39919;38.160;-122.260;2023-04-24T12:33:53;10.80;79.90
54006;DHT22;39919;38.160;-122.260;2023-04-24T12:36:24;10.80;80.20
54006;DHT22;39919;38.160;-122.260;2023-04-24T12:38:54;10.70;80.10
54006;DHT22;39919;38.160;-122.260;2023-04-24T12:41:25;10.70;79.90
54006;DHT22;39919;38.160;-122.260;2023-04-24T12:43:54;10.70;80.20
54006;DHT22;39919;38.160;-122.260;2023-04-24T12:46:24;10.70;80.00
54006;DHT22;39919;38.160;-122.260;2023-04-24T12:48:53;10.70;80.40
54006;DHT22;39919;38.160;-122.260;2023-04-24T12:51:24;10.60;80.30
54006;DHT22;39919;38.160;-122.260;2023-04-24T12:53:53;10.70;91.10
54006;DHT22;39919;38.160;-122.260;2023-04-24T12:56:24;10.70;92.20
54006;DHT22;39919;38.160;-122.260;2023-04-24T12:58:53;10.60;92.00
54006;DHT22;39919;38.160;-122.260;2023-04-24T13:01:23;10.60;84.10
54006;DHT22;39919;38.160;-122.260;2023-04-24T13:03:52;10.50;80.60
54006;DHT22;39919;38.160;-122.260;2023-04-24T13:06:21;10.60;81.10
54006;DHT22;39919;38.160;-122.260;2023-04-24T13:08:51;10.50;81.20
54006;DHT22;39919;38.160;-122.260;2023-04-24T13:11:23;10.50;80.90
54006;DHT22;39919;38.160;-122.260;2023-04-24T13:13:52;10.50;80.70
54006;DHT22;39919;38.160;-122.260;2023-04-24T13:16:24;10.50;80.70
54006;DHT22;39919;38.160;-122.260;2023-04-24T13:18:53;10.40;80.40
54006;DHT22;39919;38.160;-122.260;2023-04-24T13:21:23;10.40;80.60
54006;DHT22;39919;38.160;-122.260;2023-04-24T13:23:53;10.40;80.70
54006;DHT22;39919;38.160;-122.260;2023-04-24T13:26:24;10.40;81.70
54006;DHT22;39919;38.160;-122.260;2023-04-24T13:28:53;10.40;81.00
54006;DHT22;39919;38.160;-122.260;2023-04-24T13:31:22;10.40;80.80
54006;DHT22;39919;38.160;-122.260;2023-04-24T13:33:52;10.40;80.90
54006;DHT22;39919;38.160;-122.260;2023-04-24T13:36:21;10.40;81.60
54006;DHT22;39919;38.160;-122.260;2023-04-24T13:38:50;10.40;81.80
54006;DHT22;39919;38.160;-122.260;2023-04-24T13:41:22;10.40;81.80
54006;DHT22;39919;38.160;-122.260;2023-04-24T13:43:55;10.40;82.20
54006;DHT22;39919;38.160;-122.260;2023-04-24T13:46:24;10.50;82.40
54006;DHT22;39919;38.160;-122.260;2023-04-24T13:51:38;10.60;82.90
54006;DHT22;39919;38.160;-122.260;2023-04-24T13:54:10;10.60;82.80
54006;DHT22;39919;38.160;-122.260;2023-04-24T13:56:42;10.70;82.80
54006;DHT22;39919;38.160;-122.260;2023-04-24T13:59:13;10.70;82.80
54006;DHT22;39919;38.160;-122.260;2023-04-24T14:01:42;10.70;82.50
54006;DHT22;39919;38.160;-122.260;2023-04-24T14:04:17;10.80;82.50
54006;DHT22;39919;38.160;-122.260;2023-04-24T14:06:47;10.90;82.30
54006;DHT22;39919;38.160;-122.260;2023-04-24T14:09:17;10.90;82.90
54006;DHT22;39919;38.160;-122.260;2023-04-24T14:11:51;11.00;82.70
54006;DHT22;39919;38.160;-122.260;2023-04-24T14:14:23;11.10;82.60
54006;DHT22;39919;38.160;-122.260;2023-04-24T14:16:52;11.10;82.90
54006;DHT22;39919;38.160;-122.260;2023-04-24T14:19:21;11.20;82.10
54006;DHT22;39919;38.160;-122.260;2023-04-24T14:21:50;11.30;81.90
54006;DHT22;39919;38.160;-122.260;2023-04-24T14:24:20;11.40;81.80
54006;DHT22;39919;38.160;-122.260;2023-04-24T14:26:49;11.40;81.60
54006;DHT22;39919;38.160;-122.260;2023-04-24T14:29:23;11.50;81.40
54006;DHT22;39919;38.160;-122.260;2023-04-24T14:31:53;11.60;81.20
54006;DHT22;39919;38.160;-122.260;2023-04-24T14:34:22;11.70;81.10
54006;DHT22;39919;38.160;-122.260;2023-04-24T14:36:54;11.80;81.10
54006;DHT22;39919;38.160;-122.260;2023-04-24T14:39:24;11.90;81.00
54006;DHT22;39919;38.160;-122.260;2023-04-24T14:41:53;12.00;80.80
54006;DHT22;39919;38.160;-122.260;2023-04-24T14:44:24;12.20;80.60
54006;DHT22;39919;38.160;-122.260;2023-04-24T14:46:53;12.30;80.30
54006;DHT22;39919;38.160;-122.260;2023-04-24T14:49:24;12.40;79.90
54006;DHT22;39919;38.160;-122.260;2023-04-24T14:51:53;12.50;79.60
54006;DHT22;39919;38.160;-122.260;2023-04-24T14:54:23;12.60;78.90
54006;DHT22;39919;38.160;-122.260;2023-04-24T14:56:52;12.80;78.00
54006;DHT22;39919;38.160;-122.260;2023-04-24T14:59:25;12.90;77.90
54006;DHT22;39919;38.160;-122.260;2023-04-24T15:01:54;13.00;77.60
54006;DHT22;39919;38.160;-122.260;2023-04-24T15:04:24;13.20;77.30
54006;DHT22;39919;38.160;-122.260;2023-04-24T15:06:54;13.30;77.20
54006;DHT22;39919;38.160;-122.260;2023-04-24T15:09:24;13.50;77.20
54006;DHT22;39919;38.160;-122.260;2023-04-24T15:11:54;13.70;77.80
54006;DHT22;39919;38.160;-122.260;2023-04-24T15:14:26;14.10;77.70
54006;DHT22;39919;38.160;-122.260;2023-04-24T15:16:55;14.60;77.50
54006;DHT22;39919;38.160;-122.260;2023-04-24T15:19:24;15.30;76.30
54006;DHT22;39919;38.160;-122.260;2023-04-24T15:21:53;16.00;74.70
54006;DHT22;39919;38.160;-122.260;2023-04-24T15:24:23;16.70;73.20
54006;DHT22;39919;38.160;-122.260;2023-04-24T15:26:52;17.40;71.20